sensor_id;sensor_type;location;lat;lon;timestamp;pressure;altitude;pressure_sealevel;temperature
11849;BMP180;5983;49.966;8.052;2024-03-08T00:02:35;100611.00;;;7.20
11849;BMP180;5983;49.966;8.052;2024-03-08T00:05:04;100600.00;;;7.20
11849;BMP180;5983;49.966;8.052;2024-03-08T00:07:31;100600.00;;;7.10
11849;BMP180;5983;49.966;8.052;2024-03-08T00:09:58;100590.00;;;7.10
11849;BMP180;5983;49.966;8.052;2024-03-08T00:12:25;100588.00;;;7.00
11849;BMP180;5983;49.966;8.052;2024-03-08T00:14:54;100596.00;;;7.00
11849;BMP180;5983;49.966;8.052;2024-03-08T00:17:23;100588.00;;;6.90
11849;BMP180;5983;49.966;8.052;2024-03-08T00:19:50;100577.00;;;6.80
11849;BMP180;5983;49.966;8.052;2024-03-08T00:22:19;100574.00;;;6.80
11849;BMP180;5983;49.966;8.052;2024-03-08T00:24:47;100575.00;;;6.70
11849;BMP180;5983;49.966;8.052;2024-03-08T00:27:18;100574.00;;;6.70
11849;BMP180;5983;49.966;8.052;2024-03-08T00:29:46;100576.00;;;6.70
11849;BMP180;5983;49.966;8.052;2024-03-08T00:32:13;100571.00;;;6.60
11849;BMP180;5983;49.966;8.052;2024-03-08T00:34:43;100579.00;;;6.50
11849;BMP180;5983;49.966;8.052;2024-03-08T00:37:10;100573.00;;;6.50
11849;BMP180;5983;49.966;8.052;2024-03-08T00:39:39;100573.00;;;6.40
11849;BMP180;5983;49.966;8.052;2024-03-08T00:42:06;100571.00;;;6.40
11849;BMP180;5983;49.966;8.052;2024-03-08T00:44:33;100568.00;;;6.30
11849;BMP180;5983;49.966;8.052;2024-03-08T00:47:00;100566.00;;;6.30
11849;BMP180;5983;49.966;8.052;2024-03-08T00:49:27;100563.00;;;6.20
11849;BMP180;5983;49.966;8.052;2024-03-08T00:51:54;100566.00;;;6.20
11849;BMP180;5983;49.966;8.052;2024-03-08T00:54:21;100556.00;;;6.20
11849;BMP180;5983;49.966;8.052;2024-03-08T00:56:51;100557.00;;;6.10
11849;BMP180;5983;49.966;8.052;2024-03-08T00:59:18;100553.00;;;6.00
11849;BMP180;5983;49.966;8.052;2024-03-08T01:01:47;100554.00;;;6.00
11849;BMP180;5983;49.966;8.052;2024-03-08T01:04:14;100551.00;;;5.90
11849;BMP180;5983;49.966;8.052;2024-03-08T01:06:41;100544.00;;;5.90
11849;BMP180;5983;49.966;8.052;2024-03-08T01:09:15;100541.00;;;5.90
11849;BMP180;5983;49.966;8.052;2024-03-08T01:11:44;100540.00;;;5.90
11849;BMP180;5983;49.966;8.052;2024-03-08T01:14:13;100538.00;;;5.80
11849;BMP180;5983;49.966;8.052;2024-03-08T01:16:41;100528.00;;;5.80
11849;BMP180;5983;49.966;8.052;2024-03-08T01:19:08;100535.00;;;5.80
11849;BMP180;5983;49.966;8.052;2024-03-08T01:21:36;100520.00;;;5.80
11849;BMP180;5983;49.966;8.052;2024-03-08T01:24:04;100518.00;;;5.70
11849;BMP180;5983;49.966;8.052;2024-03-08T01:26:31;100524.00;;;5.70
11849;BMP180;5983;49.966;8.052;2024-03-08T01:29:09;100520.00;;;5.60
11849;BMP180;5983;49.966;8.052;2024-03-08T01:31:37;100514.00;;;5.60
11849;BMP180;5983;49.966;8.052;2024-03-08T01:34:04;100525.00;;;5.60
11849;BMP180;5983;49.966;8.052;2024-03-08T01:36:31;100527.00;;;5.50
11849;BMP180;5983;49.966;8.052;2024-03-08T01:38:58;100517.00;;;5.50
11849;BMP180;5983;49.966;8.052;2024-03-08T01:41:27;100507.00;;;5.50
11849;BMP180;5983;49.966;8.052;2024-03-08T01:43:57;100498.00;;;5.40
11849;BMP180;5983;49.966;8.052;2024-03-08T01:46:24;100499.00;;;5.40
11849;BMP180;5983;49.966;8.052;2024-03-08T01:48:55;100493.00;;;5.30
11849;BMP180;5983;49.966;8.052;2024-03-08T01:51:23;100492.00;;;5.30
11849;BMP180;5983;49.966;8.052;2024-03-08T01:53:50;100495.00;;;5.30
11849;BMP180;5983;49.966;8.052;2024-03-08T01:56:17;100484.00;;;5.20
11849;BMP180;5983;49.966;8.052;2024-03-08T01:58:44;100481.00;;;5.20
11849;BMP180;5983;49.966;8.052;2024-03-08T02:01:15;100478.00;;;5.20
11849;BMP180;5983;49.966;8.052;2024-03-08T02:03:45;100481.00;;;5.20
11849;BMP180;5983;49.966;8.052;2024-03-08T02:06:13;100475.00;;;5.20
11849;BMP180;5983;49.966;8.052;2024-03-08T02:08:44;100478.00;;;5.10
11849;BMP180;5983;49.966;8.052;2024-03-08T02:11:14;100476.00;;;5.10
11849;BMP180;5983;49.966;8.052;2024-03-08T02:13:41;100476.00;;;5.10
11849;BMP180;5983;49.966;8.052;2024-03-08T02:16:08;100484.00;;;5.00
11849;BMP180;5983;49.966;8.052;2024-03-08T02:18:35;100473.00;;;5.00
11849;BMP180;5983;49.966;8.052;2024-03-08T02:21:06;100476.00;;;5.00
11849;BMP180;5983;49.966;8.052;2024-03-08T02:23:34;100470.00;;;4.90
11849;BMP180;5983;49.966;8.052;2024-03-08T02:26:00;100472.00;;;4.90
11849;BMP180;5983;49.966;8.052;2024-03-08T02:28:27;100476.00;;;4.90
11849;BMP180;5983;49.966;8.052;2024-03-08T02:30:54;100464.00;;;4.80
11849;BMP180;5983;49.966;8.052;2024-03-08T02:33:22;100466.00;;;4.80
11849;BMP180;5983;49.966;8.052;2024-03-08T02:35:49;100453.00;;;4.80
11849;BMP180;5983;49.966;8.052;2024-03-08T02:38:19;100439.00;;;4.70
11849;BMP180;5983;49.966;8.052;2024-03-08T02:40:46;100446.00;;;4.70
11849;BMP180;5983;49.966;8.052;2024-03-08T02:43:14;100446.00;;;4.70
11849;BMP180;5983;49.966;8.052;2024-03-08T02:45:42;100444.00;;;4.70
11849;BMP180;5983;49.966;8.052;2024-03-08T02:48:09;100448.00;;;4.60
11849;BMP180;5983;49.966;8.052;2024-03-08T02:50:36;100448.00;;;4.60
11849;BMP180;5983;49.966;8.052;2024-03-08T02:53:05;100447.00;;;4.50
11849;BMP180;5983;49.966;8.052;2024-03-08T02:55:33;100436.00;;;4.50
11849;BMP180;5983;49.966;8.052;2024-03-08T02:58:01;100449.00;;;4.50
11849;BMP180;5983;49.966;8.052;2024-03-08T03:00:28;100442.00;;;4.40
11849;BMP180;5983;49.966;8.052;2024-03-08T03:02:56;100438.00;;;4.40
11849;BMP180;5983;49.966;8.052;2024-03-08T03:05:23;100435.00;;;4.40
11849;BMP180;5983;49.966;8.052;2024-03-08T03:07:50;100443.00;;;4.40
11849;BMP180;5983;49.966;8.052;2024-03-08T03:10:18;100446.00;;;4.30
11849;BMP180;5983;49.966;8.052;2024-03-08T03:12:46;100449.00;;;4.40
11849;BMP180;5983;49.966;8.052;2024-03-08T03:15:14;100436.00;;;4.30
11849;BMP180;5983;49.966;8.052;2024-03-08T03:17:45;100430.00;;;4.30
11849;BMP180;5983;49.966;8.052;2024-03-08T03:20:13;100436.00;;;4.30
11849;BMP180;5983;49.966;8.052;2024-03-08T03:22:40;100439.00;;;4.30
11849;BMP180;5983;49.966;8.052;2024-03-08T03:25:08;100430.00;;;4.20
11849;BMP180;5983;49.966;8.052;2024-03-08T03:27:35;100437.00;;;4.20
11849;BMP180;5983;49.966;8.052;2024-03-08T03:30:05;100434.00;;;4.20
11849;BMP180;5983;49.966;8.052;2024-03-08T03:32:46;100432.00;;;4.20
11849;BMP180;5983;49.966;8.052;2024-03-08T03:35:13;100431.00;;;4.20
11849;BMP180;5983;49.966;8.052;2024-03-08T03:37:41;100425.00;;;4.10
11849;BMP180;5983;49.966;8.052;2024-03-08T03:40:12;100420.00;;;4.10
11849;BMP180;5983;49.966;8.052;2024-03-08T03:42:39;100427.00;;;4.10
11849;BMP180;5983;49.966;8.052;2024-03-08T03:45:08;100418.00;;;4.10
11849;BMP180;5983;49.966;8.052;2024-03-08T03:47:35;100418.00;;;4.00
11849;BMP180;5983;49.966;8.052;2024-03-08T03:50:05;100421.00;;;4.00
11849;BMP180;5983;49.966;8.052;2024-03-08T03:52:31;100415.00;;;4.00
11849;BMP180;5983;49.966;8.052;2024-03-08T03:54:58;100418.00;;;4.00
11849;BMP180;5983;49.966;8.052;2024-03-08T03:57:25;100408.00;;;4.00
11849;BMP180;5983;49.966;8.052;2024-03-08T03:59:52;100417.00;;;3.90
11849;BMP180;5983;49.966;8.052;2024-03-08T04:02:20;100421.00;;;3.90
11849;BMP180;5983;49.966;8.052;2024-03-08T04:04:47;100419.00;;;3.90
11849;BMP180;5983;49.966;8.052;2024-03-08T04:07:14;100414.00;;;3.80
11849;BMP180;5983;49.966;8.052;2024-03-08T04:09:41;100414.00;;;3.80
11849;BMP180;5983;49.966;8.052;2024-03-08T04:12:08;100407.00;;;3.80
11849;BMP180;5983;49.966;8.052;2024-03-08T04:14:35;100401.00;;;3.80
11849;BMP180;5983;49.966;8.052;2024-03-08T04:17:02;100404.00;;;3.70
11849;BMP180;5983;49.966;8.052;2024-03-08T04:19:30;100409.00;;;3.70
11849;BMP180;5983;49.966;8.052;2024-03-08T04:21:57;100403.00;;;3.80
11849;BMP180;5983;49.966;8.052;2024-03-08T04:24:23;100399.00;;;3.70
11849;BMP180;5983;49.966;8.052;2024-03-08T04:26:50;100406.00;;;3.70
11849;BMP180;5983;49.966;8.052;2024-03-08T04:29:17;100405.00;;;3.70
11849;BMP180;5983;49.966;8.052;2024-03-08T04:31:44;100408.00;;;3.70
11849;BMP180;5983;49.966;8.052;2024-03-08T04:34:11;100413.00;;;3.70
11849;BMP180;5983;49.966;8.052;2024-03-08T04:36:39;100399.00;;;3.70
11849;BMP180;5983;49.966;8.052;2024-03-08T04:39:05;100398.00;;;3.60
11849;BMP180;5983;49.966;8.052;2024-03-08T04:41:37;100397.00;;;3.60
11849;BMP180;5983;49.966;8.052;2024-03-08T04:44:04;100393.00;;;3.60
11849;BMP180;5983;49.966;8.052;2024-03-08T04:46:31;100400.00;;;3.50
11849;BMP180;5983;49.966;8.052;2024-03-08T04:48:58;100389.00;;;3.50
11849;BMP180;5983;49.966;8.052;2024-03-08T04:51:25;100393.00;;;3.50
11849;BMP180;5983;49.966;8.052;2024-03-08T04:53:53;100389.00;;;3.50
11849;BMP180;5983;49.966;8.052;2024-03-08T04:56:20;100381.00;;;3.50
11849;BMP180;5983;49.966;8.052;2024-03-08T04:58:47;100383.00;;;3.50
11849;BMP180;5983;49.966;8.052;2024-03-08T05:01:14;100375.00;;;3.40
11849;BMP180;5983;49.966;8.052;2024-03-08T05:03:41;100381.00;;;3.40
11849;BMP180;5983;49.966;8.052;2024-03-08T05:06:07;100383.00;;;3.40
11849;BMP180;5983;49.966;8.052;2024-03-08T05:08:34;100377.00;;;3.30
11849;BMP180;5983;49.966;8.052;2024-03-08T05:11:02;100375.00;;;3.30
11849;BMP180;5983;49.966;8.052;2024-03-08T05:13:32;100373.00;;;3.30
11849;BMP180;5983;49.966;8.052;2024-03-08T05:15:59;100378.00;;;3.30
11849;BMP180;5983;49.966;8.052;2024-03-08T05:18:26;100375.00;;;3.30
11849;BMP180;5983;49.966;8.052;2024-03-08T05:20:53;100382.00;;;3.30
11849;BMP180;5983;49.966;8.052;2024-03-08T05:23:20;100382.00;;;3.20
11849;BMP180;5983;49.966;8.052;2024-03-08T05:25:47;100376.00;;;3.20
11849;BMP180;5983;49.966;8.052;2024-03-08T05:28:16;100375.00;;;3.20
11849;BMP180;5983;49.966;8.052;2024-03-08T05:30:42;100377.00;;;3.20
11849;BMP180;5983;49.966;8.052;2024-03-08T05:33:09;100375.00;;;3.20
11849;BMP180;5983;49.966;8.052;2024-03-08T05:35:36;100381.00;;;3.20
11849;BMP180;5983;49.966;8.052;2024-03-08T05:38:03;100369.00;;;3.10
11849;BMP180;5983;49.966;8.052;2024-03-08T05:40:30;100375.00;;;3.10
11849;BMP180;5983;49.966;8.052;2024-03-08T05:42:58;100372.00;;;3.00
11849;BMP180;5983;49.966;8.052;2024-03-08T05:45:26;100369.00;;;3.00
11849;BMP180;5983;49.966;8.052;2024-03-08T05:47:53;100366.00;;;3.00
11849;BMP180;5983;49.966;8.052;2024-03-08T05:50:19;100360.00;;;3.00
11849;BMP180;5983;49.966;8.052;2024-03-08T05:52:46;100371.00;;;3.00
11849;BMP180;5983;49.966;8.052;2024-03-08T05:55:15;100360.00;;;2.90
11849;BMP180;5983;49.966;8.052;2024-03-08T05:57:42;100355.00;;;2.70
11849;BMP180;5983;49.966;8.052;2024-03-08T06:00:10;100357.00;;;2.70
11849;BMP180;5983;49.966;8.052;2024-03-08T06:02:38;100361.00;;;2.70
11849;BMP180;5983;49.966;8.052;2024-03-08T06:05:08;100362.00;;;2.70
11849;BMP180;5983;49.966;8.052;2024-03-08T06:07:35;100362.00;;;2.70
11849;BMP180;5983;49.966;8.052;2024-03-08T06:10:02;100351.00;;;2.70
11849;BMP180;5983;49.966;8.052;2024-03-08T06:12:29;100350.00;;;2.70
11849;BMP180;5983;49.966;8.052;2024-03-08T06:14:59;100356.00;;;2.60
11849;BMP180;5983;49.966;8.052;2024-03-08T06:17:26;100349.00;;;2.60
11849;BMP180;5983;49.966;8.052;2024-03-08T06:19:54;100351.00;;;2.70
11849;BMP180;5983;49.966;8.052;2024-03-08T06:22:20;100356.00;;;2.80
11849;BMP180;5983;49.966;8.052;2024-03-08T06:24:47;100350.00;;;2.80
11849;BMP180;5983;49.966;8.052;2024-03-08T06:27:14;100359.00;;;3.00
11849;BMP180;5983;49.966;8.052;2024-03-08T06:29:41;100348.00;;;3.50
11849;BMP180;5983;49.966;8.052;2024-03-08T06:32:08;100358.00;;;4.20
11849;BMP180;5983;49.966;8.052;2024-03-08T06:34:35;100358.00;;;4.80
11849;BMP180;5983;49.966;8.052;2024-03-08T06:37:03;100370.00;;;5.40
11849;BMP180;5983;49.966;8.052;2024-03-08T06:39:30;100367.00;;;6.00
11849;BMP180;5983;49.966;8.052;2024-03-08T06:41:57;100366.00;;;6.50
11849;BMP180;5983;49.966;8.052;2024-03-08T06:44:25;100363.00;;;7.00
11849;BMP180;5983;49.966;8.052;2024-03-08T06:46:52;100363.00;;;7.40
11849;BMP180;5983;49.966;8.052;2024-03-08T06:49:19;100374.00;;;7.80
11849;BMP180;5983;49.966;8.052;2024-03-08T06:51:46;100358.00;;;8.20
11849;BMP180;5983;49.966;8.052;2024-03-08T06:54:14;100373.00;;;8.60
11849;BMP180;5983;49.966;8.052;2024-03-08T06:56:40;100378.00;;;9.00
11849;BMP180;5983;49.966;8.052;2024-03-08T06:59:07;100375.00;;;9.40
11849;BMP180;5983;49.966;8.052;2024-03-08T07:01:36;100378.00;;;9.70
11849;BMP180;5983;49.966;8.052;2024-03-08T07:04:04;100371.00;;;10.00
11849;BMP180;5983;49.966;8.052;2024-03-08T07:06:31;100381.00;;;10.40
11849;BMP180;5983;49.966;8.052;2024-03-08T07:08:59;100375.00;;;10.70
11849;BMP180;5983;49.966;8.052;2024-03-08T07:11:28;100386.00;;;11.10
11849;BMP180;5983;49.966;8.052;2024-03-08T07:13:55;100383.00;;;11.40
11849;BMP180;5983;49.966;8.052;2024-03-08T07:16:21;100381.00;;;11.70
11849;BMP180;5983;49.966;8.052;2024-03-08T07:18:49;100381.00;;;12.30
11849;BMP180;5983;49.966;8.052;2024-03-08T07:21:18;100384.00;;;12.70
11849;BMP180;5983;49.966;8.052;2024-03-08T07:23:45;100381.00;;;13.00
11849;BMP180;5983;49.966;8.052;2024-03-08T07:26:30;100378.00;;;13.20
11849;BMP180;5983;49.966;8.052;2024-03-08T07:28:57;100382.00;;;13.40
11849;BMP180;5983;49.966;8.052;2024-03-08T07:31:26;100383.00;;;13.70
11849;BMP180;5983;49.966;8.052;2024-03-08T07:34:03;100385.00;;;13.80
11849;BMP180;5983;49.966;8.052;2024-03-08T07:36:33;100375.00;;;13.90
11849;BMP180;5983;49.966;8.052;2024-03-08T07:39:00;100374.00;;;14.40
11849;BMP180;5983;49.966;8.052;2024-03-08T07:41:27;100377.00;;;14.30
11849;BMP180;5983;49.966;8.052;2024-03-08T07:43:55;100380.00;;;14.60
11849;BMP180;5983;49.966;8.052;2024-03-08T07:46:22;100378.00;;;14.80
11849;BMP180;5983;49.966;8.052;2024-03-08T07:48:49;100377.00;;;15.10
11849;BMP180;5983;49.966;8.052;2024-03-08T07:51:17;100378.00;;;15.30
11849;BMP180;5983;49.966;8.052;2024-03-08T07:53:44;100372.00;;;15.40
11849;BMP180;5983;49.966;8.052;2024-03-08T07:56:10;100378.00;;;15.70
11849;BMP180;5983;49.966;8.052;2024-03-08T07:58:39;100377.00;;;15.90
11849;BMP180;5983;49.966;8.052;2024-03-08T08:01:15;100365.00;;;15.80
11849;BMP180;5983;49.966;8.052;2024-03-08T08:03:42;100359.00;;;16.20
11849;BMP180;5983;49.966;8.052;2024-03-08T08:06:09;100360.00;;;16.20
11849;BMP180;5983;49.966;8.052;2024-03-08T08:08:41;100367.00;;;16.20
11849;BMP180;5983;49.966;8.052;2024-03-08T08:11:08;100360.00;;;16.40
11849;BMP180;5983;49.966;8.052;2024-03-08T08:13:36;100353.00;;;16.60
11849;BMP180;5983;49.966;8.052;2024-03-08T08:16:04;100354.00;;;16.60
11849;BMP180;5983;49.966;8.052;2024-03-08T08:18:33;100355.00;;;16.70
11849;BMP180;5983;49.966;8.052;2024-03-08T08:21:01;100357.00;;;17.00
11849;BMP180;5983;49.966;8.052;2024-03-08T08:23:28;100346.00;;;17.50
11849;BMP180;5983;49.966;8.052;2024-03-08T08:25:55;100349.00;;;17.70
11849;BMP180;5983;49.966;8.052;2024-03-08T08:28:22;100352.00;;;17.90
11849;BMP180;5983;49.966;8.052;2024-03-08T08:30:50;100354.00;;;17.90
11849;BMP180;5983;49.966;8.052;2024-03-08T08:33:17;100359.00;;;18.30
11849;BMP180;5983;49.966;8.052;2024-03-08T08:35:46;100349.00;;;18.10
11849;BMP180;5983;49.966;8.052;2024-03-08T08:38:13;100348.00;;;18.20
11849;BMP180;5983;49.966;8.052;2024-03-08T08:40:40;100346.00;;;18.70
11849;BMP180;5983;49.966;8.052;2024-03-08T08:43:07;100336.00;;;18.80
11849;BMP180;5983;49.966;8.052;2024-03-08T08:45:34;100332.00;;;19.40
11849;BMP180;5983;49.966;8.052;2024-03-08T08:48:01;100346.00;;;19.90
11849;BMP180;5983;49.966;8.052;2024-03-08T08:50:28;100338.00;;;20.10
11849;BMP180;5983;49.966;8.052;2024-03-08T08:52:56;100335.00;;;19.60
11849;BMP180;5983;49.966;8.052;2024-03-08T08:55:23;100342.00;;;19.50
11849;BMP180;5983;49.966;8.052;2024-03-08T08:57:58;100335.00;;;19.70
11849;BMP180;5983;49.966;8.052;2024-03-08T09:00:25;100324.00;;;19.40
11849;BMP180;5983;49.966;8.052;2024-03-08T09:02:56;100321.00;;;19.30
11849;BMP180;5983;49.966;8.052;2024-03-08T09:05:26;100317.00;;;19.50
11849;BMP180;5983;49.966;8.052;2024-03-08T09:08:12;100307.00;;;19.80
11849;BMP180;5983;49.966;8.052;2024-03-08T09:10:41;100318.00;;;19.80
11849;BMP180;5983;49.966;8.052;2024-03-08T09:13:09;100300.00;;;19.80
11849;BMP180;5983;49.966;8.052;2024-03-08T09:15:37;100302.00;;;19.60
11849;BMP180;5983;49.966;8.052;2024-03-08T09:18:06;100288.00;;;20.20
11849;BMP180;5983;49.966;8.052;2024-03-08T09:20:33;100296.00;;;20.50
11849;BMP180;5983;49.966;8.052;2024-03-08T09:23:00;100290.00;;;20.10
11849;BMP180;5983;49.966;8.052;2024-03-08T09:25:29;100286.00;;;20.60
11849;BMP180;5983;49.966;8.052;2024-03-08T09:27:56;100287.00;;;20.20
11849;BMP180;5983;49.966;8.052;2024-03-08T09:30:24;100284.00;;;19.80
11849;BMP180;5983;49.966;8.052;2024-03-08T09:32:53;100283.00;;;20.10
11849;BMP180;5983;49.966;8.052;2024-03-08T09:35:20;100277.00;;;21.10
11849;BMP180;5983;49.966;8.052;2024-03-08T09:37:47;100270.00;;;21.00
11849;BMP180;5983;49.966;8.052;2024-03-08T09:40:17;100265.00;;;21.10
11849;BMP180;5983;49.966;8.052;2024-03-08T09:42:47;100265.00;;;22.10
11849;BMP180;5983;49.966;8.052;2024-03-08T09:45:14;100250.00;;;22.10
11849;BMP180;5983;49.966;8.052;2024-03-08T09:47:44;100264.00;;;22.10
11849;BMP180;5983;49.966;8.052;2024-03-08T09:50:11;100255.00;;;22.10
11849;BMP180;5983;49.966;8.052;2024-03-08T09:52:40;100253.00;;;21.90
11849;BMP180;5983;49.966;8.052;2024-03-08T09:55:10;100253.00;;;22.60
11849;BMP180;5983;49.966;8.052;2024-03-08T09:57:42;100244.00;;;22.60
11849;BMP180;5983;49.966;8.052;2024-03-08T10:00:33;100237.00;;;22.80
11849;BMP180;5983;49.966;8.052;2024-03-08T10:03:03;100235.00;;;22.80
11849;BMP180;5983;49.966;8.052;2024-03-08T10:05:31;100221.00;;;22.40
11849;BMP180;5983;49.966;8.052;2024-03-08T10:08:00;100224.00;;;22.00
11849;BMP180;5983;49.966;8.052;2024-03-08T10:10:27;100222.00;;;22.70
11849;BMP180;5983;49.966;8.052;2024-03-08T10:12:55;100219.00;;;22.70
11849;BMP180;5983;49.966;8.052;2024-03-08T10:15:28;100214.00;;;22.90
11849;BMP180;5983;49.966;8.052;2024-03-08T10:17:57;100215.00;;;23.10
11849;BMP180;5983;49.966;8.052;2024-03-08T10:20:24;100211.00;;;22.90
11849;BMP180;5983;49.966;8.052;2024-03-08T10:22:52;100214.00;;;23.00
11849;BMP180;5983;49.966;8.052;2024-03-08T10:25:25;100204.00;;;23.70
11849;BMP180;5983;49.966;8.052;2024-03-08T10:27:53;100206.00;;;24.30
11849;BMP180;5983;49.966;8.052;2024-03-08T10:30:20;100195.00;;;24.50
11849;BMP180;5983;49.966;8.052;2024-03-08T10:36:27;100189.00;;;24.40
11849;BMP180;5983;49.966;8.052;2024-03-08T10:39:20;100188.00;;;24.30
11849;BMP180;5983;49.966;8.052;2024-03-08T10:41:53;100177.00;;;24.30
11849;BMP180;5983;49.966;8.052;2024-03-08T10:44:36;100178.00;;;24.30
11849;BMP180;5983;49.966;8.052;2024-03-08T10:47:15;100173.00;;;24.90
11849;BMP180;5983;49.966;8.052;2024-03-08T10:49:51;100172.00;;;25.00
11849;BMP180;5983;49.966;8.052;2024-03-08T10:52:20;100176.00;;;25.00
11849;BMP180;5983;49.966;8.052;2024-03-08T10:54:48;100165.00;;;25.00
11849;BMP180;5983;49.966;8.052;2024-03-08T10:57:20;100168.00;;;25.00
11849;BMP180;5983;49.966;8.052;2024-03-08T10:59:49;100168.00;;;25.10
11849;BMP180;5983;49.966;8.052;2024-03-08T11:02:20;100165.00;;;25.20
11849;BMP180;5983;49.966;8.052;2024-03-08T11:04:48;100161.00;;;25.70
11849;BMP180;5983;49.966;8.052;2024-03-08T11:07:16;100156.00;;;26.00
11849;BMP180;5983;49.966;8.052;2024-03-08T11:09:48;100166.00;;;25.50
11849;BMP180;5983;49.966;8.052;2024-03-08T11:12:19;100157.00;;;24.90
11849;BMP180;5983;49.966;8.052;2024-03-08T11:14:47;100166.00;;;24.10
11849;BMP180;5983;49.966;8.052;2024-03-08T11:17:15;100157.00;;;23.70
11849;BMP180;5983;49.966;8.052;2024-03-08T11:19:46;100147.00;;;22.90
11849;BMP180;5983;49.966;8.052;2024-03-08T11:22:26;100152.00;;;22.30
11849;BMP180;5983;49.966;8.052;2024-03-08T11:25:01;100146.00;;;21.70
11849;BMP180;5983;49.966;8.052;2024-03-08T11:27:29;100146.00;;;22.60
11849;BMP180;5983;49.966;8.052;2024-03-08T11:30:01;100147.00;;;23.70
11849;BMP180;5983;49.966;8.052;2024-03-08T11:32:36;100150.00;;;23.50
11849;BMP180;5983;49.966;8.052;2024-03-08T11:35:08;100138.00;;;23.50
11849;BMP180;5983;49.966;8.052;2024-03-08T11:37:48;100146.00;;;23.70
11849;BMP180;5983;49.966;8.052;2024-03-08T11:40:18;100140.00;;;23.40
11849;BMP180;5983;49.966;8.052;2024-03-08T11:42:47;100138.00;;;23.30
11849;BMP180;5983;49.966;8.052;2024-03-08T11:45:22;100121.00;;;24.10
11849;BMP180;5983;49.966;8.052;2024-03-08T11:48:24;100129.00;;;24.30
11849;BMP180;5983;49.966;8.052;2024-03-08T11:50:59;100124.00;;;23.60
11849;BMP180;5983;49.966;8.052;2024-03-08T11:53:29;100121.00;;;23.90
11849;BMP180;5983;49.966;8.052;2024-03-08T11:56:14;100125.00;;;24.10
11849;BMP180;5983;49.966;8.052;2024-03-08T11:59:12;100114.00;;;24.60
11849;BMP180;5983;49.966;8.052;2024-03-08T12:02:01;100114.00;;;24.50
11849;BMP180;5983;49.966;8.052;2024-03-08T12:04:32;100108.00;;;24.80
11849;BMP180;5983;49.966;8.052;2024-03-08T12:07:25;100099.00;;;24.80
11849;BMP180;5983;49.966;8.052;2024-03-08T12:10:16;100095.00;;;25.60
11849;BMP180;5983;49.966;8.052;2024-03-08T12:12:56;100091.00;;;25.90
11849;BMP180;5983;49.966;8.052;2024-03-08T12:15:28;100089.00;;;25.60
11849;BMP180;5983;49.966;8.052;2024-03-08T12:18:24;100075.00;;;25.00
11849;BMP180;5983;49.966;8.052;2024-03-08T12:21:04;100088.00;;;25.20
11849;BMP180;5983;49.966;8.052;2024-03-08T12:24:02;100081.00;;;25.40
11849;BMP180;5983;49.966;8.052;2024-03-08T12:33:26;100060.00;;;25.40
11849;BMP180;5983;49.966;8.052;2024-03-08T12:36:44;100066.00;;;24.80
11849;BMP180;5983;49.966;8.052;2024-03-08T12:39:20;100057.00;;;24.80
11849;BMP180;5983;49.966;8.052;2024-03-08T12:42:11;100060.00;;;25.20
11849;BMP180;5983;49.966;8.052;2024-03-08T12:44:38;100061.00;;;25.00
11849;BMP180;5983;49.966;8.052;2024-03-08T12:47:10;100057.00;;;24.60
11849;BMP180;5983;49.966;8.052;2024-03-08T12:56:35;100032.00;;;22.90
11849;BMP180;5983;49.966;8.052;2024-03-08T12:59:29;100027.00;;;22.70
11849;BMP180;5983;49.966;8.052;2024-03-08T13:02:33;100019.00;;;23.30
11849;BMP180;5983;49.966;8.052;2024-03-08T13:05:18;100022.00;;;23.90
11849;BMP180;5983;49.966;8.052;2024-03-08T13:07:45;100009.00;;;23.70
11849;BMP180;5983;49.966;8.052;2024-03-08T13:10:16;100008.00;;;23.70
11849;BMP180;5983;49.966;8.052;2024-03-08T13:12:47;100010.00;;;23.80
11849;BMP180;5983;49.966;8.052;2024-03-08T13:15:14;99994.00;;;23.20
11849;BMP180;5983;49.966;8.052;2024-03-08T13:18:00;99995.00;;;23.50
11849;BMP180;5983;49.966;8.052;2024-03-08T13:20:27;99992.00;;;23.60
11849;BMP180;5983;49.966;8.052;2024-03-08T13:22:55;99980.00;;;23.80
11849;BMP180;5983;49.966;8.052;2024-03-08T13:25:24;99985.00;;;23.40
11849;BMP180;5983;49.966;8.052;2024-03-08T13:27:52;99984.00;;;23.10
11849;BMP180;5983;49.966;8.052;2024-03-08T13:30:22;99988.00;;;23.70
11849;BMP180;5983;49.966;8.052;2024-03-08T13:32:52;99980.00;;;23.50
11849;BMP180;5983;49.966;8.052;2024-03-08T13:35:19;99976.00;;;23.80
11849;BMP180;5983;49.966;8.052;2024-03-08T13:37:51;99975.00;;;23.40
11849;BMP180;5983;49.966;8.052;2024-03-08T13:40:18;99965.00;;;23.50
11849;BMP180;5983;49.966;8.052;2024-03-08T13:42:45;99960.00;;;23.40
11849;BMP180;5983;49.966;8.052;2024-03-08T13:45:16;99956.00;;;23.60
11849;BMP180;5983;49.966;8.052;2024-03-08T13:47:48;99944.00;;;23.90
11849;BMP180;5983;49.966;8.052;2024-03-08T13:50:17;99944.00;;;23.10
11849;BMP180;5983;49.966;8.052;2024-03-08T13:52:46;99947.00;;;23.30
11849;BMP180;5983;49.966;8.052;2024-03-08T13:55:15;99933.00;;;22.90
11849;BMP180;5983;49.966;8.052;2024-03-08T13:57:42;99933.00;;;22.80
11849;BMP180;5983;49.966;8.052;2024-03-08T14:00:11;99924.00;;;22.80
11849;BMP180;5983;49.966;8.052;2024-03-08T14:02:40;99914.00;;;22.80
11849;BMP180;5983;49.966;8.052;2024-03-08T14:05:07;99917.00;;;22.80
11849;BMP180;5983;49.966;8.052;2024-03-08T14:07:34;99917.00;;;22.40
11849;BMP180;5983;49.966;8.052;2024-03-08T14:10:01;99905.00;;;22.30
11849;BMP180;5983;49.966;8.052;2024-03-08T14:12:28;99906.00;;;21.90
11849;BMP180;5983;49.966;8.052;2024-03-08T14:14:55;99898.00;;;21.80
11849;BMP180;5983;49.966;8.052;2024-03-08T14:17:25;99894.00;;;21.80
11849;BMP180;5983;49.966;8.052;2024-03-08T14:19:54;99891.00;;;22.20
11849;BMP180;5983;49.966;8.052;2024-03-08T14:22:21;99883.00;;;21.90
11849;BMP180;5983;49.966;8.052;2024-03-08T14:24:55;99878.00;;;21.60
11849;BMP180;5983;49.966;8.052;2024-03-08T14:27:22;99873.00;;;21.30
11849;BMP180;5983;49.966;8.052;2024-03-08T14:29:49;99874.00;;;21.00
11849;BMP180;5983;49.966;8.052;2024-03-08T14:32:16;99864.00;;;20.30
11849;BMP180;5983;49.966;8.052;2024-03-08T14:34:45;99864.00;;;20.00
11849;BMP180;5983;49.966;8.052;2024-03-08T14:37:13;99866.00;;;20.20
11849;BMP180;5983;49.966;8.052;2024-03-08T14:39:40;99855.00;;;19.70
11849;BMP180;5983;49.966;8.052;2024-03-08T14:42:07;99854.00;;;19.50
11849;BMP180;5983;49.966;8.052;2024-03-08T14:44:38;99850.00;;;19.40
11849;BMP180;5983;49.966;8.052;2024-03-08T14:47:05;99842.00;;;18.70
11849;BMP180;5983;49.966;8.052;2024-03-08T14:49:32;99839.00;;;18.00